AZU2460 SBGO-SBRF
Flight info
| Callsign | AZU2460 |
|---|---|
| Flight time | 2h 40m |
| Altitude | 37000 |
| Route | LODUV DCT EPDEP UZ78 NETBA UZ79 MUDAR |
| Aircraft | A20N/M-SDE2E3FGHIRWXY/LB1 |
Departure
| Time | 2026-04-26 00:26 |
|---|---|
| Airport | Santa Genoveva International Airport (SBGO) |
Arrival
| Time | 2026-04-26 03:06 |
|---|---|
| Airport | Recife/Guararapes - Gilberto Freyre International Airport (SBRF) |
| Time | Latitude | Longitude | Altitude | Speed | Heading |
|---|---|---|---|---|---|
| 2026-04-25 23:56 | -16.62978 | -49.21537 | 2438 ft | 0 kts | 64° |
| 2026-04-26 00:16 | -16.62982 | -49.21544 | 2436 ft | 3 kts | 64° |
| 2026-04-26 00:16 | -16.62990 | -49.21562 | 2434 ft | 2 kts | 77° |
| 2026-04-26 00:16 | -16.63000 | -49.21575 | 2434 ft | 3 kts | 1° |
| 2026-04-26 00:17 | -16.63007 | -49.21575 | 2434 ft | 0 kts | 333° |
| 2026-04-26 00:19 | -16.63007 | -49.21576 | 2434 ft | 0 kts | 333° |
| 2026-04-26 00:20 | -16.62970 | -49.21609 | 2435 ft | 12 kts | 322° |
| 2026-04-26 00:20 | -16.62921 | -49.21667 | 2437 ft | 11 kts | 275° |
| 2026-04-26 00:20 | -16.62936 | -49.21752 | 2434 ft | 17 kts | 258° |
| 2026-04-26 00:20 | -16.62961 | -49.21873 | 2434 ft | 17 kts | 258° |
| 2026-04-26 00:21 | -16.62986 | -49.21992 | 2436 ft | 18 kts | 258° |
| 2026-04-26 00:21 | -16.62984 | -49.22130 | 2434 ft | 19 kts | 285° |
| 2026-04-26 00:21 | -16.62926 | -49.22254 | 2433 ft | 19 kts | 300° |
| 2026-04-26 00:21 | -16.62858 | -49.22375 | 2432 ft | 19 kts | 300° |
| 2026-04-26 00:22 | -16.62790 | -49.22497 | 2433 ft | 19 kts | 300° |
| 2026-04-26 00:22 | -16.62721 | -49.22618 | 2430 ft | 20 kts | 300° |
| 2026-04-26 00:22 | -16.62652 | -49.22741 | 2432 ft | 20 kts | 300° |
| 2026-04-26 00:22 | -16.62584 | -49.22861 | 2429 ft | 17 kts | 299° |
| 2026-04-26 00:23 | -16.62613 | -49.22943 | 2430 ft | 12 kts | 210° |
| 2026-04-26 00:23 | -16.62619 | -49.22946 | 2431 ft | 0 kts | 210° |
| 2026-04-26 00:24 | -16.62627 | -49.22951 | 2430 ft | 7 kts | 210° |
| 2026-04-26 00:24 | -16.62703 | -49.22973 | 2427 ft | 12 kts | 152° |
| 2026-04-26 00:24 | -16.62732 | -49.22937 | 2431 ft | 0 kts | 120° |
| 2026-04-26 00:25 | -16.62784 | -49.22846 | 2430 ft | 46 kts | 120° |
| 2026-04-26 00:25 | -16.63087 | -49.22306 | 2434 ft | 127 kts | 120° |
| 2026-04-26 00:26 | -16.63634 | -49.21345 | 2798 ft | 165 kts | 121° |
| 2026-04-26 00:26 | -16.64213 | -49.20331 | 3733 ft | 165 kts | 120° |
| 2026-04-26 00:26 | -16.64828 | -49.19228 | 4195 ft | 189 kts | 120° |
| 2026-04-26 00:26 | -16.65538 | -49.17951 | 4440 ft | 220 kts | 120° |
| 2026-04-26 00:27 | -16.66328 | -49.16442 | 4683 ft | 252 kts | 112° |
| 2026-04-26 00:27 | -16.66590 | -49.14598 | 5231 ft | 267 kts | 81° |
| 2026-04-26 00:27 | -16.65795 | -49.12846 | 5967 ft | 274 kts | 50° |
| 2026-04-26 00:27 | -16.64588 | -49.11289 | 6741 ft | 279 kts | 59° |
| 2026-04-26 00:28 | -16.63828 | -49.09422 | 7425 ft | 281 kts | 69° |
| 2026-04-26 00:28 | -16.63157 | -49.07507 | 7875 ft | 282 kts | 71° |
| 2026-04-26 00:28 | -16.62518 | -49.05567 | 8040 ft | 283 kts | 71° |
| 2026-04-26 00:28 | -16.61880 | -49.03618 | 8054 ft | 285 kts | 71° |
| 2026-04-26 00:29 | -16.61235 | -49.01663 | 8053 ft | 285 kts | 71° |
| 2026-04-26 00:29 | -16.60584 | -48.99698 | 8407 ft | 289 kts | 71° |
| 2026-04-26 00:29 | -16.59920 | -48.97705 | 9255 ft | 291 kts | 71° |
| 2026-04-26 00:29 | -16.59253 | -48.95704 | 10168 ft | 294 kts | 71° |
| 2026-04-26 00:30 | -16.58562 | -48.93636 | 10638 ft | 313 kts | 70° |
| 2026-04-26 00:30 | -16.57824 | -48.91433 | 11046 ft | 329 kts | 70° |
| 2026-04-26 00:30 | -16.57058 | -48.89147 | 11675 ft | 337 kts | 70° |
| 2026-04-26 00:30 | -16.56281 | -48.86828 | 12366 ft | 342 kts | 70° |
| 2026-04-26 00:31 | -16.55436 | -48.84498 | 13064 ft | 346 kts | 64° |
| 2026-04-26 00:31 | -16.54127 | -48.82389 | 13747 ft | 350 kts | 47° |
| 2026-04-26 00:31 | -16.52203 | -48.80824 | 14353 ft | 354 kts | 27° |
| 2026-04-26 00:31 | -16.49857 | -48.80060 | 14968 ft | 357 kts | 6° |
| 2026-04-26 00:32 | -16.47363 | -48.79988 | 15589 ft | 361 kts | 358° |
| 2026-04-26 00:32 | -16.44846 | -48.80195 | 16192 ft | 365 kts | 354° |
| 2026-04-26 00:32 | -16.39739 | -48.80162 | 17404 ft | 372 kts | 11° |
| 2026-04-26 00:33 | -16.37261 | -48.79379 | 17992 ft | 374 kts | 24° |
| 2026-04-26 00:33 | -16.35027 | -48.77983 | 18524 ft | 377 kts | 39° |
| 2026-04-26 00:33 | -16.33056 | -48.76173 | 18985 ft | 380 kts | 44° |
| 2026-04-26 00:33 | -16.31237 | -48.74219 | 19367 ft | 382 kts | 47° |
| 2026-04-26 00:34 | -16.29455 | -48.72149 | 19808 ft | 385 kts | 49° |
| 2026-04-26 00:34 | -16.27692 | -48.70041 | 20260 ft | 388 kts | 49° |
| 2026-04-26 00:34 | -16.25916 | -48.67921 | 20730 ft | 390 kts | 49° |
| 2026-04-26 00:34 | -16.24110 | -48.65790 | 21205 ft | 393 kts | 49° |
| 2026-04-26 00:35 | -16.22281 | -48.63659 | 21697 ft | 396 kts | 48° |
| 2026-04-26 00:35 | -16.20433 | -48.61529 | 22193 ft | 399 kts | 48° |
| 2026-04-26 00:35 | -16.18562 | -48.59386 | 22682 ft | 402 kts | 48° |
| 2026-04-26 00:35 | -16.16670 | -48.57227 | 23175 ft | 405 kts | 48° |
| 2026-04-26 00:36 | -16.14774 | -48.55066 | 23714 ft | 406 kts | 48° |
| 2026-04-26 00:36 | -16.12863 | -48.52889 | 24159 ft | 408 kts | 48° |
| 2026-04-26 00:36 | -16.10942 | -48.50700 | 24593 ft | 411 kts | 48° |
| 2026-04-26 00:36 | -16.09006 | -48.48494 | 25036 ft | 414 kts | 48° |
| 2026-04-26 00:37 | -16.07059 | -48.46274 | 25471 ft | 416 kts | 48° |
| 2026-04-26 00:37 | -16.05105 | -48.44046 | 25914 ft | 419 kts | 48° |
| 2026-04-26 00:37 | -16.03136 | -48.41803 | 26343 ft | 421 kts | 48° |
| 2026-04-26 00:37 | -16.01152 | -48.39542 | 26758 ft | 424 kts | 48° |
| 2026-04-26 00:38 | -15.99160 | -48.37274 | 27173 ft | 426 kts | 48° |
| 2026-04-26 00:38 | -15.97155 | -48.34991 | 27574 ft | 429 kts | 48° |
| 2026-04-26 00:38 | -15.95136 | -48.32693 | 27968 ft | 431 kts | 48° |
| 2026-04-26 00:38 | -15.93109 | -48.30386 | 28360 ft | 434 kts | 49° |
| 2026-04-26 00:39 | -15.91065 | -48.28061 | 28751 ft | 436 kts | 49° |
| 2026-04-26 00:39 | -15.89012 | -48.25727 | 29134 ft | 439 kts | 49° |
| 2026-04-26 00:39 | -15.86950 | -48.23383 | 29521 ft | 441 kts | 49° |
| 2026-04-26 00:39 | -15.85574 | -48.21820 | 29776 ft | 443 kts | 49° |
| 2026-04-26 00:40 | -15.82782 | -48.18649 | 30247 ft | 446 kts | 49° |
| 2026-04-26 00:40 | -15.80683 | -48.16265 | 30580 ft | 448 kts | 49° |
| 2026-04-26 00:40 | -15.79289 | -48.14682 | 30807 ft | 449 kts | 49° |
| 2026-04-26 00:40 | -15.77181 | -48.12291 | 31148 ft | 450 kts | 49° |
| 2026-04-26 00:41 | -15.75062 | -48.09887 | 31468 ft | 452 kts | 49° |
| 2026-04-26 00:41 | -15.72223 | -48.06668 | 31974 ft | 451 kts | 48° |
| 2026-04-26 00:41 | -15.70819 | -48.05077 | 32279 ft | 450 kts | 48° |
| 2026-04-26 00:41 | -15.68713 | -48.02690 | 32739 ft | 448 kts | 48° |
| 2026-04-26 00:42 | -15.66612 | -48.00310 | 33181 ft | 446 kts | 48° |
| 2026-04-26 00:42 | -15.64521 | -47.97942 | 33600 ft | 444 kts | 48° |
| 2026-04-26 00:42 | -15.62438 | -47.95583 | 34017 ft | 443 kts | 48° |
| 2026-04-26 00:42 | -15.60361 | -47.93232 | 34377 ft | 441 kts | 48° |
| 2026-04-26 00:43 | -15.58287 | -47.90885 | 34713 ft | 440 kts | 48° |
| 2026-04-26 00:43 | -15.56224 | -47.88551 | 35047 ft | 439 kts | 48° |
| 2026-04-26 00:43 | -15.54161 | -47.86219 | 35379 ft | 438 kts | 48° |
| 2026-04-26 00:43 | -15.52108 | -47.83897 | 35702 ft | 436 kts | 47° |
| 2026-04-26 00:44 | -15.50058 | -47.81581 | 36018 ft | 435 kts | 47° |
| 2026-04-26 00:44 | -15.48013 | -47.79270 | 36317 ft | 434 kts | 47° |
| 2026-04-26 00:44 | -15.45971 | -47.76964 | 36594 ft | 434 kts | 47° |
| 2026-04-26 00:44 | -15.43959 | -47.74693 | 36889 ft | 433 kts | 47° |
| 2026-04-26 00:45 | -15.41923 | -47.72395 | 37014 ft | 433 kts | 47° |
| 2026-04-26 00:45 | -15.39891 | -47.70102 | 37023 ft | 432 kts | 47° |
| 2026-04-26 00:45 | -15.35833 | -47.65526 | 37023 ft | 431 kts | 47° |
| 2026-04-26 00:46 | -15.31779 | -47.60956 | 37019 ft | 431 kts | 47° |
| 2026-04-26 00:46 | -15.27724 | -47.56389 | 37019 ft | 431 kts | 47° |
| 2026-04-26 00:47 | -15.23664 | -47.51818 | 37015 ft | 431 kts | 47° |
| 2026-04-26 00:47 | -15.19598 | -47.47244 | 37014 ft | 431 kts | 47° |
| 2026-04-26 00:48 | -15.15534 | -47.42675 | 37005 ft | 431 kts | 47° |
| 2026-04-26 00:48 | -15.11469 | -47.38107 | 36999 ft | 431 kts | 47° |
| 2026-04-26 00:49 | -15.07401 | -47.33539 | 36997 ft | 431 kts | 48° |
| 2026-04-26 00:49 | -15.03336 | -47.28977 | 36993 ft | 431 kts | 48° |
| 2026-04-26 00:50 | -14.99277 | -47.24424 | 36989 ft | 431 kts | 48° |
| 2026-04-26 00:50 | -14.95213 | -47.19868 | 36989 ft | 431 kts | 47° |
| 2026-04-26 00:51 | -14.91153 | -47.15368 | 36987 ft | 431 kts | 46° |
| 2026-04-26 00:51 | -14.87062 | -47.10833 | 36980 ft | 431 kts | 47° |
| 2026-04-26 00:52 | -14.82989 | -47.06285 | 36980 ft | 431 kts | 47° |
| 2026-04-26 00:52 | -14.78926 | -47.01724 | 36973 ft | 431 kts | 49° |
| 2026-04-26 00:53 | -14.75286 | -46.96798 | 36981 ft | 431 kts | 53° |
| 2026-04-26 00:53 | -14.71792 | -46.91774 | 36975 ft | 430 kts | 55° |
| 2026-04-26 00:54 | -14.68352 | -46.86720 | 36977 ft | 430 kts | 55° |
| 2026-04-26 00:54 | -14.64910 | -46.81677 | 36978 ft | 430 kts | 55° |
| 2026-04-26 00:55 | -14.61444 | -46.76648 | 36976 ft | 430 kts | 55° |
| 2026-04-26 00:55 | -14.57969 | -46.71633 | 36976 ft | 429 kts | 54° |
| 2026-04-26 00:56 | -14.54490 | -46.66622 | 36977 ft | 429 kts | 54° |
| 2026-04-26 00:56 | -14.51009 | -46.61610 | 36980 ft | 429 kts | 54° |
| 2026-04-26 00:57 | -14.47528 | -46.56599 | 36986 ft | 429 kts | 55° |
| 2026-04-26 00:57 | -14.44049 | -46.51594 | 36986 ft | 429 kts | 54° |
| 2026-04-26 00:58 | -14.40549 | -46.46606 | 36988 ft | 429 kts | 54° |
| 2026-04-26 00:58 | -14.37044 | -46.41620 | 36989 ft | 429 kts | 54° |
| 2026-04-26 00:59 | -14.33575 | -46.36656 | 36993 ft | 429 kts | 54° |
| 2026-04-26 00:59 | -14.30101 | -46.31669 | 36997 ft | 428 kts | 54° |
| 2026-04-26 01:00 | -14.26632 | -46.26690 | 36999 ft | 428 kts | 54° |
| 2026-04-26 01:00 | -14.23169 | -46.21704 | 37003 ft | 427 kts | 55° |
| 2026-04-26 01:01 | -14.19727 | -46.16712 | 37007 ft | 427 kts | 55° |
| 2026-04-26 01:01 | -14.16267 | -46.11727 | 37007 ft | 428 kts | 55° |
| 2026-04-26 01:02 | -14.12793 | -46.06748 | 37012 ft | 428 kts | 54° |
| 2026-04-26 01:02 | -14.09317 | -46.01775 | 37013 ft | 428 kts | 54° |
| 2026-04-26 01:03 | -14.05839 | -45.96802 | 37017 ft | 428 kts | 54° |
| 2026-04-26 01:03 | -14.02362 | -45.91834 | 37015 ft | 428 kts | 54° |
| 2026-04-26 01:04 | -13.98885 | -45.86867 | 37015 ft | 428 kts | 54° |
| 2026-04-26 01:04 | -13.95407 | -45.81903 | 37016 ft | 427 kts | 54° |
| 2026-04-26 01:05 | -13.91934 | -45.76947 | 37012 ft | 426 kts | 54° |
| 2026-04-26 01:05 | -13.88531 | -45.71964 | 37013 ft | 425 kts | 57° |
| 2026-04-26 01:06 | -13.85439 | -45.66823 | 37009 ft | 425 kts | 59° |
| 2026-04-26 01:06 | -13.82410 | -45.61598 | 37010 ft | 425 kts | 59° |
| 2026-04-26 01:07 | -13.79363 | -45.56387 | 37010 ft | 425 kts | 59° |
| 2026-04-26 01:07 | -13.76291 | -45.51191 | 37009 ft | 425 kts | 59° |
| 2026-04-26 01:08 | -13.73210 | -45.46006 | 37010 ft | 425 kts | 59° |
| 2026-04-26 01:08 | -13.70126 | -45.40826 | 37009 ft | 425 kts | 59° |
| 2026-04-26 01:09 | -13.67040 | -45.35645 | 37008 ft | 425 kts | 59° |
| 2026-04-26 01:09 | -13.63957 | -45.30470 | 37007 ft | 425 kts | 59° |
| 2026-04-26 01:10 | -13.60871 | -45.25294 | 37006 ft | 425 kts | 59° |
| 2026-04-26 01:10 | -13.57783 | -45.20117 | 37007 ft | 424 kts | 59° |
| 2026-04-26 01:11 | -13.54696 | -45.14944 | 37007 ft | 424 kts | 59° |
| 2026-04-26 01:11 | -13.51611 | -45.09779 | 37007 ft | 424 kts | 59° |
| 2026-04-26 01:12 | -13.48521 | -45.04608 | 37006 ft | 424 kts | 59° |
| 2026-04-26 01:12 | -13.45433 | -44.99443 | 37007 ft | 424 kts | 59° |
| 2026-04-26 01:13 | -13.42342 | -44.94278 | 37007 ft | 424 kts | 59° |
| 2026-04-26 01:13 | -13.39253 | -44.89117 | 37003 ft | 424 kts | 59° |
| 2026-04-26 01:14 | -13.36162 | -44.83956 | 37005 ft | 424 kts | 59° |
| 2026-04-26 01:14 | -13.33072 | -44.78801 | 37004 ft | 424 kts | 59° |
| 2026-04-26 01:15 | -13.29998 | -44.73675 | 37003 ft | 424 kts | 59° |
| 2026-04-26 01:15 | -13.26904 | -44.68519 | 37003 ft | 424 kts | 59° |
| 2026-04-26 01:16 | -13.23812 | -44.63370 | 37004 ft | 424 kts | 59° |
| 2026-04-26 01:16 | -13.20718 | -44.58220 | 37004 ft | 424 kts | 59° |
| 2026-04-26 01:17 | -13.17625 | -44.53074 | 37004 ft | 424 kts | 58° |
| 2026-04-26 01:17 | -13.14525 | -44.47924 | 37004 ft | 424 kts | 58° |
| 2026-04-26 01:18 | -13.11399 | -44.42792 | 37007 ft | 424 kts | 57° |
| 2026-04-26 01:18 | -13.08279 | -44.37663 | 37008 ft | 424 kts | 58° |
| 2026-04-26 01:19 | -13.05169 | -44.32526 | 37007 ft | 424 kts | 58° |
| 2026-04-26 01:19 | -13.02065 | -44.27383 | 37007 ft | 424 kts | 58° |
| 2026-04-26 01:20 | -12.98971 | -44.22238 | 37007 ft | 424 kts | 58° |
| 2026-04-26 01:20 | -12.95871 | -44.17096 | 37006 ft | 424 kts | 58° |
| 2026-04-26 01:21 | -12.92769 | -44.11961 | 37007 ft | 424 kts | 58° |
| 2026-04-26 01:21 | -12.89663 | -44.06818 | 37001 ft | 424 kts | 58° |
| 2026-04-26 01:22 | -12.86562 | -44.01679 | 36999 ft | 424 kts | 58° |
| 2026-04-26 01:22 | -12.83458 | -43.96534 | 36999 ft | 424 kts | 58° |
| 2026-04-26 01:23 | -12.80369 | -43.91383 | 36999 ft | 424 kts | 58° |
| 2026-04-26 01:23 | -12.77273 | -43.86239 | 36996 ft | 424 kts | 58° |
| 2026-04-26 01:24 | -12.74140 | -43.81116 | 36996 ft | 424 kts | 57° |
| 2026-04-26 01:24 | -12.70986 | -43.75999 | 36998 ft | 425 kts | 57° |
| 2026-04-26 01:25 | -12.67874 | -43.70888 | 36991 ft | 426 kts | 57° |
| 2026-04-26 01:25 | -12.64762 | -43.65734 | 36991 ft | 426 kts | 58° |
| 2026-04-26 01:26 | -12.61669 | -43.60568 | 36990 ft | 426 kts | 58° |
| 2026-04-26 01:26 | -12.58558 | -43.55410 | 36991 ft | 426 kts | 58° |
| 2026-04-26 01:27 | -12.55429 | -43.50258 | 36994 ft | 426 kts | 58° |
| 2026-04-26 01:27 | -12.52296 | -43.45112 | 36992 ft | 426 kts | 58° |
| 2026-04-26 01:28 | -12.49152 | -43.39952 | 36997 ft | 427 kts | 57° |
| 2026-04-26 01:28 | -12.46009 | -43.34795 | 36996 ft | 427 kts | 57° |
| 2026-04-26 01:29 | -12.42864 | -43.29638 | 36993 ft | 427 kts | 57° |
| 2026-04-26 01:29 | -12.39704 | -43.24492 | 36997 ft | 427 kts | 56° |
| 2026-04-26 01:30 | -12.36528 | -43.19363 | 37001 ft | 427 kts | 56° |
| 2026-04-26 01:30 | -12.33366 | -43.14216 | 37006 ft | 427 kts | 56° |
| 2026-04-26 01:31 | -12.30218 | -43.09061 | 37004 ft | 427 kts | 57° |
| 2026-04-26 01:31 | -12.27089 | -43.03894 | 37002 ft | 427 kts | 58° |
| 2026-04-26 01:32 | -12.24493 | -42.99594 | 37010 ft | 427 kts | 57° |
| 2026-04-26 01:32 | -12.21355 | -42.94435 | 36999 ft | 427 kts | 57° |
| 2026-04-26 01:33 | -12.18204 | -42.89284 | 37010 ft | 427 kts | 57° |
| 2026-04-26 01:33 | -12.15052 | -42.84141 | 37015 ft | 427 kts | 57° |
| 2026-04-26 01:34 | -12.11895 | -42.78993 | 37014 ft | 427 kts | 57° |
| 2026-04-26 01:34 | -12.08739 | -42.73847 | 37023 ft | 427 kts | 57° |
| 2026-04-26 01:35 | -12.05580 | -42.68701 | 37032 ft | 427 kts | 57° |
| 2026-04-26 01:35 | -12.02423 | -42.63558 | 37032 ft | 427 kts | 57° |
| 2026-04-26 01:36 | -11.99266 | -42.58418 | 37039 ft | 427 kts | 57° |
| 2026-04-26 01:37 | -11.94523 | -42.50701 | 37059 ft | 428 kts | 57° |
| 2026-04-26 01:37 | -11.91383 | -42.45598 | 37055 ft | 428 kts | 57° |
| 2026-04-26 01:38 | -11.88213 | -42.40448 | 37060 ft | 428 kts | 57° |
| 2026-04-26 01:38 | -11.85034 | -42.35315 | 37068 ft | 428 kts | 56° |
| 2026-04-26 01:39 | -11.81841 | -42.30190 | 37071 ft | 428 kts | 56° |
| 2026-04-26 01:39 | -11.78661 | -42.25062 | 37072 ft | 428 kts | 56° |
| 2026-04-26 01:40 | -11.75484 | -42.19933 | 37068 ft | 427 kts | 56° |
| 2026-04-26 01:40 | -11.72312 | -42.14801 | 37064 ft | 427 kts | 56° |
| 2026-04-26 01:41 | -11.69144 | -42.09671 | 37064 ft | 427 kts | 56° |
| 2026-04-26 01:41 | -11.65974 | -42.04536 | 37067 ft | 428 kts | 56° |
| 2026-04-26 01:42 | -11.62819 | -41.99398 | 37060 ft | 428 kts | 56° |
| 2026-04-26 01:42 | -11.59658 | -41.94257 | 37062 ft | 427 kts | 56° |
| 2026-04-26 01:43 | -11.56500 | -41.89126 | 37063 ft | 427 kts | 57° |
| 2026-04-26 01:43 | -11.53346 | -41.83993 | 37062 ft | 427 kts | 57° |
| 2026-04-26 01:44 | -11.50180 | -41.78864 | 37060 ft | 427 kts | 56° |
| 2026-04-26 01:44 | -11.46990 | -41.73761 | 37054 ft | 427 kts | 55° |
| 2026-04-26 01:45 | -11.43792 | -41.68660 | 37055 ft | 427 kts | 56° |
| 2026-04-26 01:45 | -11.40610 | -41.63548 | 37061 ft | 427 kts | 56° |
| 2026-04-26 01:46 | -11.37438 | -41.58430 | 37062 ft | 427 kts | 56° |
| 2026-04-26 01:46 | -11.34270 | -41.53314 | 37060 ft | 427 kts | 57° |
| 2026-04-26 01:47 | -11.31116 | -41.48176 | 37063 ft | 428 kts | 57° |
| 2026-04-26 01:47 | -11.27949 | -41.43042 | 37066 ft | 428 kts | 56° |
| 2026-04-26 01:48 | -11.24769 | -41.37917 | 37068 ft | 428 kts | 56° |
| 2026-04-26 01:48 | -11.21585 | -41.32799 | 37072 ft | 428 kts | 56° |
| 2026-04-26 01:49 | -11.18397 | -41.27678 | 37063 ft | 428 kts | 56° |
| 2026-04-26 01:49 | -11.15209 | -41.22558 | 37066 ft | 428 kts | 56° |
| 2026-04-26 01:50 | -11.12022 | -41.17441 | 37066 ft | 428 kts | 56° |
| 2026-04-26 01:50 | -11.08828 | -41.12333 | 37066 ft | 428 kts | 55° |
| 2026-04-26 01:51 | -11.05620 | -41.07227 | 37069 ft | 428 kts | 56° |
| 2026-04-26 01:51 | -11.02427 | -41.02101 | 37064 ft | 429 kts | 56° |
| 2026-04-26 01:52 | -10.99234 | -40.96980 | 37064 ft | 429 kts | 56° |
| 2026-04-26 01:52 | -10.96039 | -40.91853 | 37065 ft | 429 kts | 56° |
| 2026-04-26 01:53 | -10.92847 | -40.86735 | 37062 ft | 428 kts | 56° |
| 2026-04-26 01:53 | -10.89654 | -40.81620 | 37068 ft | 428 kts | 56° |
| 2026-04-26 01:54 | -10.86459 | -40.76505 | 37064 ft | 428 kts | 56° |
| 2026-04-26 01:54 | -10.83263 | -40.71392 | 37061 ft | 429 kts | 56° |
| 2026-04-26 01:55 | -10.80062 | -40.66277 | 37056 ft | 429 kts | 56° |
| 2026-04-26 01:55 | -10.76860 | -40.61165 | 37054 ft | 428 kts | 56° |
| 2026-04-26 01:56 | -10.73660 | -40.56060 | 37057 ft | 428 kts | 56° |
| 2026-04-26 01:56 | -10.70457 | -40.50952 | 37061 ft | 428 kts | 56° |
| 2026-04-26 01:57 | -10.67254 | -40.45846 | 37062 ft | 428 kts | 56° |
| 2026-04-26 01:57 | -10.64075 | -40.40781 | 37061 ft | 428 kts | 56° |
| 2026-04-26 01:58 | -10.60877 | -40.35689 | 37060 ft | 427 kts | 56° |
| 2026-04-26 01:58 | -10.57681 | -40.30600 | 37059 ft | 427 kts | 56° |
| 2026-04-26 01:59 | -10.54487 | -40.25519 | 37060 ft | 427 kts | 56° |
| 2026-04-26 01:59 | -10.51293 | -40.20438 | 37054 ft | 427 kts | 56° |
| 2026-04-26 02:00 | -10.48098 | -40.15359 | 37055 ft | 427 kts | 56° |
| 2026-04-26 02:00 | -10.44901 | -40.10281 | 37056 ft | 426 kts | 56° |
| 2026-04-26 02:01 | -10.41709 | -40.05211 | 37055 ft | 426 kts | 56° |
| 2026-04-26 02:01 | -10.38513 | -40.00134 | 37054 ft | 426 kts | 56° |
| 2026-04-26 02:02 | -10.35319 | -39.95063 | 37048 ft | 426 kts | 56° |
| 2026-04-26 02:02 | -10.32124 | -39.89992 | 37047 ft | 426 kts | 56° |
| 2026-04-26 02:03 | -10.28928 | -39.84922 | 37047 ft | 426 kts | 56° |
| 2026-04-26 02:03 | -10.25730 | -39.79851 | 37048 ft | 426 kts | 56° |
| 2026-04-26 02:04 | -10.22538 | -39.74792 | 37052 ft | 425 kts | 56° |
| 2026-04-26 02:04 | -10.19350 | -39.69742 | 37049 ft | 425 kts | 56° |
| 2026-04-26 02:05 | -10.16161 | -39.64693 | 37049 ft | 424 kts | 56° |
| 2026-04-26 02:05 | -10.12977 | -39.59654 | 37045 ft | 424 kts | 56° |
| 2026-04-26 02:06 | -10.09793 | -39.54618 | 37048 ft | 424 kts | 56° |
| 2026-04-26 02:06 | -10.06612 | -39.49587 | 37048 ft | 423 kts | 56° |
| 2026-04-26 02:07 | -10.03453 | -39.44593 | 37045 ft | 423 kts | 56° |
| 2026-04-26 02:07 | -10.00272 | -39.39567 | 37039 ft | 423 kts | 56° |
| 2026-04-26 02:08 | -9.97089 | -39.34540 | 37036 ft | 423 kts | 56° |
| 2026-04-26 02:08 | -9.93902 | -39.29510 | 37041 ft | 424 kts | 56° |
| 2026-04-26 02:09 | -9.90714 | -39.24484 | 37044 ft | 424 kts | 56° |
| 2026-04-26 02:09 | -9.87526 | -39.19462 | 37038 ft | 424 kts | 56° |
| 2026-04-26 02:10 | -9.84337 | -39.14438 | 37042 ft | 424 kts | 56° |
| 2026-04-26 02:10 | -9.81148 | -39.09412 | 37037 ft | 424 kts | 56° |
| 2026-04-26 02:11 | -9.77961 | -39.04388 | 37039 ft | 424 kts | 56° |
| 2026-04-26 02:11 | -9.74768 | -38.99358 | 37031 ft | 424 kts | 56° |
| 2026-04-26 02:12 | -9.71577 | -38.94333 | 37037 ft | 424 kts | 56° |
| 2026-04-26 02:12 | -9.68386 | -38.89310 | 37036 ft | 424 kts | 56° |
| 2026-04-26 02:13 | -9.65197 | -38.84294 | 37035 ft | 424 kts | 56° |
| 2026-04-26 02:13 | -9.62003 | -38.79271 | 37041 ft | 424 kts | 56° |
| 2026-04-26 02:14 | -9.58814 | -38.74257 | 37037 ft | 424 kts | 56° |
| 2026-04-26 02:14 | -9.55619 | -38.69237 | 37030 ft | 423 kts | 56° |
| 2026-04-26 02:15 | -9.52448 | -38.64257 | 37034 ft | 424 kts | 56° |
| 2026-04-26 02:15 | -9.49253 | -38.59241 | 37030 ft | 424 kts | 56° |
| 2026-04-26 02:16 | -9.46058 | -38.54228 | 37031 ft | 424 kts | 56° |
| 2026-04-26 02:16 | -9.42860 | -38.49220 | 37030 ft | 423 kts | 56° |
| 2026-04-26 02:17 | -9.39665 | -38.44221 | 37031 ft | 423 kts | 56° |
| 2026-04-26 02:17 | -9.36468 | -38.39221 | 37039 ft | 423 kts | 56° |
| 2026-04-26 02:18 | -9.33266 | -38.34215 | 37049 ft | 424 kts | 56° |
| 2026-04-26 02:18 | -9.30053 | -38.29215 | 37044 ft | 424 kts | 55° |
| 2026-04-26 02:19 | -9.26818 | -38.24231 | 37046 ft | 424 kts | 55° |
| 2026-04-26 02:19 | -9.23598 | -38.19233 | 37038 ft | 424 kts | 56° |
| 2026-04-26 02:20 | -9.20390 | -38.14229 | 37040 ft | 424 kts | 56° |
| 2026-04-26 02:20 | -9.17179 | -38.09212 | 37032 ft | 425 kts | 56° |
| 2026-04-26 02:21 | -9.14512 | -38.05043 | 37026 ft | 424 kts | 56° |
| 2026-04-26 02:21 | -9.11306 | -38.00029 | 37023 ft | 424 kts | 56° |
| 2026-04-26 02:22 | -9.07556 | -37.94167 | 37023 ft | 424 kts | 56° |
| 2026-04-26 02:22 | -9.04898 | -37.89991 | 37026 ft | 425 kts | 56° |
| 2026-04-26 02:23 | -9.01678 | -37.84974 | 37029 ft | 425 kts | 56° |
| 2026-04-26 02:23 | -8.98448 | -37.79968 | 37027 ft | 425 kts | 56° |
| 2026-04-26 02:24 | -8.95225 | -37.74961 | 37027 ft | 424 kts | 56° |
| 2026-04-26 02:24 | -8.92015 | -37.69957 | 37026 ft | 424 kts | 56° |
| 2026-04-26 02:25 | -8.88812 | -37.64956 | 37027 ft | 424 kts | 56° |
| 2026-04-26 02:25 | -8.85599 | -37.59964 | 37024 ft | 424 kts | 56° |
| 2026-04-26 02:26 | -8.82380 | -37.54977 | 37029 ft | 424 kts | 56° |
| 2026-04-26 02:26 | -8.79164 | -37.49985 | 37024 ft | 424 kts | 56° |
| 2026-04-26 02:27 | -8.75952 | -37.44994 | 37030 ft | 424 kts | 56° |
| 2026-04-26 02:27 | -8.72761 | -37.40028 | 37038 ft | 424 kts | 56° |
| 2026-04-26 02:28 | -8.69555 | -37.35040 | 37032 ft | 423 kts | 56° |
| 2026-04-26 02:28 | -8.66350 | -37.30063 | 37034 ft | 422 kts | 56° |
| 2026-04-26 02:29 | -8.63146 | -37.25091 | 37034 ft | 422 kts | 56° |
| 2026-04-26 02:29 | -8.59939 | -37.20117 | 37032 ft | 423 kts | 56° |
| 2026-04-26 02:30 | -8.56729 | -37.15137 | 37033 ft | 423 kts | 56° |
| 2026-04-26 02:30 | -8.53527 | -37.10145 | 37035 ft | 423 kts | 57° |
| 2026-04-26 02:31 | -8.50337 | -37.05152 | 37037 ft | 423 kts | 56° |
| 2026-04-26 02:31 | -8.47132 | -37.00168 | 37043 ft | 423 kts | 56° |
| 2026-04-26 02:32 | -8.43916 | -36.95193 | 37039 ft | 423 kts | 56° |
| 2026-04-26 02:32 | -8.40691 | -36.90226 | 37038 ft | 423 kts | 56° |
| 2026-04-26 02:33 | -8.37475 | -36.85251 | 37035 ft | 423 kts | 56° |
| 2026-04-26 02:33 | -8.34259 | -36.80275 | 37038 ft | 423 kts | 56° |
| 2026-04-26 02:34 | -8.31046 | -36.75307 | 37040 ft | 423 kts | 56° |
| 2026-04-26 02:34 | -8.27830 | -36.70333 | 37036 ft | 423 kts | 56° |
| 2026-04-26 02:35 | -8.24619 | -36.65353 | 36994 ft | 424 kts | 56° |
| 2026-04-26 02:35 | -8.23012 | -36.62864 | 36746 ft | 423 kts | 56° |
| 2026-04-26 02:35 | -8.21421 | -36.60358 | 36492 ft | 425 kts | 59° |
| 2026-04-26 02:35 | -8.20005 | -36.57742 | 36261 ft | 426 kts | 62° |
| 2026-04-26 02:36 | -8.18651 | -36.55076 | 36020 ft | 427 kts | 62° |
| 2026-04-26 02:36 | -8.17312 | -36.52411 | 35667 ft | 425 kts | 62° |
| 2026-04-26 02:36 | -8.15968 | -36.49739 | 35016 ft | 429 kts | 62° |
| 2026-04-26 02:36 | -8.14611 | -36.47044 | 34332 ft | 433 kts | 63° |
| 2026-04-26 02:37 | -8.13236 | -36.44319 | 33585 ft | 438 kts | 63° |
| 2026-04-26 02:37 | -8.11846 | -36.41568 | 32837 ft | 441 kts | 63° |
| 2026-04-26 02:37 | -8.10458 | -36.38821 | 32324 ft | 438 kts | 63° |
| 2026-04-26 02:37 | -8.09078 | -36.36091 | 31806 ft | 435 kts | 64° |
| 2026-04-26 02:38 | -8.07707 | -36.33379 | 31288 ft | 433 kts | 64° |
| 2026-04-26 02:38 | -8.06361 | -36.30719 | 30773 ft | 430 kts | 64° |
| 2026-04-26 02:38 | -8.05003 | -36.28035 | 30250 ft | 429 kts | 65° |
| 2026-04-26 02:38 | -8.03650 | -36.25360 | 29644 ft | 427 kts | 65° |
| 2026-04-26 02:39 | -8.02305 | -36.22702 | 29084 ft | 424 kts | 65° |
| 2026-04-26 02:39 | -8.00969 | -36.20063 | 28548 ft | 421 kts | 65° |
| 2026-04-26 02:39 | -7.99642 | -36.17441 | 28015 ft | 418 kts | 65° |
| 2026-04-26 02:39 | -7.98326 | -36.14842 | 27485 ft | 415 kts | 65° |
| 2026-04-26 02:40 | -7.97017 | -36.12258 | 26958 ft | 412 kts | 65° |
| 2026-04-26 02:40 | -7.95717 | -36.09692 | 26414 ft | 410 kts | 65° |
| 2026-04-26 02:40 | -7.94426 | -36.07142 | 25873 ft | 407 kts | 64° |
| 2026-04-26 02:40 | -7.93128 | -36.04609 | 25324 ft | 405 kts | 64° |
| 2026-04-26 02:41 | -7.91837 | -36.02095 | 24816 ft | 402 kts | 64° |
| 2026-04-26 02:41 | -7.90569 | -35.99616 | 24346 ft | 393 kts | 64° |
| 2026-04-26 02:41 | -7.89337 | -35.97197 | 23785 ft | 383 kts | 64° |
| 2026-04-26 02:41 | -7.88139 | -35.94835 | 23194 ft | 373 kts | 64° |
| 2026-04-26 02:42 | -7.86974 | -35.92540 | 22677 ft | 362 kts | 64° |
| 2026-04-26 02:42 | -7.85847 | -35.90314 | 22197 ft | 352 kts | 64° |
| 2026-04-26 02:42 | -7.84741 | -35.88131 | 21729 ft | 349 kts | 64° |
| 2026-04-26 02:42 | -7.83637 | -35.85952 | 21246 ft | 348 kts | 64° |
| 2026-04-26 02:43 | -7.81436 | -35.81615 | 20297 ft | 347 kts | 63° |
| 2026-04-26 02:43 | -7.80340 | -35.79454 | 19827 ft | 346 kts | 63° |
| 2026-04-26 02:43 | -7.79245 | -35.77293 | 19338 ft | 346 kts | 63° |
| 2026-04-26 02:44 | -7.78150 | -35.75133 | 18858 ft | 345 kts | 63° |
| 2026-04-26 02:44 | -7.77060 | -35.72988 | 18392 ft | 344 kts | 63° |
| 2026-04-26 02:44 | -7.75973 | -35.70846 | 17879 ft | 342 kts | 63° |
| 2026-04-26 02:44 | -7.74892 | -35.68718 | 17373 ft | 340 kts | 63° |
| 2026-04-26 02:45 | -7.73821 | -35.66608 | 16909 ft | 337 kts | 63° |
| 2026-04-26 02:45 | -7.72920 | -35.64448 | 16434 ft | 333 kts | 75° |
| 2026-04-26 02:45 | -7.72527 | -35.62161 | 15973 ft | 330 kts | 84° |
| 2026-04-26 02:45 | -7.72313 | -35.59866 | 15510 ft | 328 kts | 85° |
| 2026-04-26 02:46 | -7.72133 | -35.57584 | 15053 ft | 326 kts | 86° |
| 2026-04-26 02:46 | -7.71952 | -35.55314 | 14596 ft | 324 kts | 85° |
| 2026-04-26 02:46 | -7.71765 | -35.53056 | 14142 ft | 322 kts | 85° |
| 2026-04-26 02:46 | -7.71577 | -35.50806 | 13676 ft | 321 kts | 86° |
| 2026-04-26 02:47 | -7.71394 | -35.48571 | 13196 ft | 319 kts | 86° |
| 2026-04-26 02:47 | -7.71211 | -35.46354 | 12748 ft | 315 kts | 86° |
| 2026-04-26 02:47 | -7.71026 | -35.44162 | 12303 ft | 313 kts | 86° |
| 2026-04-26 02:47 | -7.70841 | -35.41980 | 11868 ft | 311 kts | 86° |
| 2026-04-26 02:48 | -7.70655 | -35.39816 | 11431 ft | 309 kts | 86° |
| 2026-04-26 02:48 | -7.70469 | -35.37661 | 10999 ft | 307 kts | 86° |
| 2026-04-26 02:48 | -7.70284 | -35.35521 | 10640 ft | 306 kts | 86° |
| 2026-04-26 02:48 | -7.70101 | -35.33418 | 10436 ft | 294 kts | 86° |
| 2026-04-26 02:49 | -7.69926 | -35.31414 | 10169 ft | 281 kts | 86° |
| 2026-04-26 02:49 | -7.69759 | -35.29498 | 9950 ft | 267 kts | 86° |
| 2026-04-26 02:49 | -7.69602 | -35.27693 | 9785 ft | 249 kts | 86° |
| 2026-04-26 02:49 | -7.69456 | -35.26034 | 9649 ft | 228 kts | 86° |
| 2026-04-26 02:50 | -7.69322 | -35.24508 | 9490 ft | 209 kts | 87° |
| 2026-04-26 02:50 | -7.69199 | -35.23106 | 9354 ft | 193 kts | 87° |
| 2026-04-26 02:50 | -7.69082 | -35.21811 | 9230 ft | 178 kts | 86° |
| 2026-04-26 02:50 | -7.68971 | -35.20618 | 9050 ft | 164 kts | 86° |
| 2026-04-26 02:51 | -7.68869 | -35.19496 | 8760 ft | 157 kts | 86° |
| 2026-04-26 02:51 | -7.68771 | -35.18431 | 8464 ft | 150 kts | 86° |
| 2026-04-26 02:51 | -7.68678 | -35.17385 | 8110 ft | 150 kts | 87° |
| 2026-04-26 02:51 | -7.68587 | -35.16338 | 7763 ft | 149 kts | 87° |
| 2026-04-26 02:52 | -7.68497 | -35.15296 | 7409 ft | 149 kts | 88° |
| 2026-04-26 02:52 | -7.68409 | -35.14266 | 7153 ft | 147 kts | 88° |
| 2026-04-26 02:52 | -7.68323 | -35.13241 | 6986 ft | 147 kts | 89° |
| 2026-04-26 02:52 | -7.68241 | -35.12227 | 6824 ft | 147 kts | 89° |
| 2026-04-26 02:53 | -7.68154 | -35.11203 | 6669 ft | 146 kts | 88° |
| 2026-04-26 02:53 | -7.68068 | -35.10169 | 6493 ft | 146 kts | 90° |
| 2026-04-26 02:53 | -7.68114 | -35.09169 | 6326 ft | 144 kts | 102° |
| 2026-04-26 02:53 | -7.68389 | -35.08210 | 6163 ft | 141 kts | 115° |
| 2026-04-26 02:54 | -7.68891 | -35.07353 | 6002 ft | 139 kts | 129° |
| 2026-04-26 02:54 | -7.69557 | -35.06676 | 5843 ft | 138 kts | 142° |
| 2026-04-26 02:54 | -7.70372 | -35.06171 | 5687 ft | 137 kts | 155° |
| 2026-04-26 02:54 | -7.71268 | -35.05840 | 5523 ft | 137 kts | 161° |
| 2026-04-26 02:55 | -7.72175 | -35.05551 | 5377 ft | 137 kts | 161° |
| 2026-04-26 02:55 | -7.73081 | -35.05264 | 5216 ft | 136 kts | 161° |
| 2026-04-26 02:55 | -7.73982 | -35.04978 | 5070 ft | 136 kts | 161° |
| 2026-04-26 02:55 | -7.74882 | -35.04690 | 4904 ft | 135 kts | 161° |
| 2026-04-26 02:56 | -7.75776 | -35.04404 | 4759 ft | 135 kts | 161° |
| 2026-04-26 02:56 | -7.76666 | -35.04118 | 4597 ft | 134 kts | 161° |
| 2026-04-26 02:56 | -7.77554 | -35.03833 | 4447 ft | 133 kts | 161° |
| 2026-04-26 02:56 | -7.78436 | -35.03549 | 4298 ft | 133 kts | 161° |
| 2026-04-26 02:57 | -7.79314 | -35.03267 | 4145 ft | 132 kts | 161° |
| 2026-04-26 02:57 | -7.80188 | -35.02986 | 3999 ft | 132 kts | 161° |
| 2026-04-26 02:57 | -7.81058 | -35.02711 | 3852 ft | 131 kts | 163° |
| 2026-04-26 02:57 | -7.81936 | -35.02467 | 3702 ft | 130 kts | 163° |
| 2026-04-26 02:58 | -7.82802 | -35.02203 | 3582 ft | 130 kts | 162° |
| 2026-04-26 02:58 | -7.83662 | -35.01931 | 3444 ft | 129 kts | 162° |
| 2026-04-26 02:58 | -7.84520 | -35.01652 | 3293 ft | 129 kts | 161° |
| 2026-04-26 02:58 | -7.85372 | -35.01368 | 3142 ft | 129 kts | 161° |
| 2026-04-26 02:59 | -7.86220 | -35.01081 | 3013 ft | 129 kts | 161° |
| 2026-04-26 02:59 | -7.87068 | -35.00792 | 2839 ft | 128 kts | 162° |
| 2026-04-26 02:59 | -7.87916 | -35.00504 | 2697 ft | 128 kts | 162° |
| 2026-04-26 02:59 | -7.88772 | -35.00216 | 2654 ft | 132 kts | 162° |
| 2026-04-26 03:00 | -7.89658 | -34.99923 | 2660 ft | 135 kts | 163° |
| 2026-04-26 03:00 | -7.90556 | -34.99628 | 2654 ft | 136 kts | 163° |
| 2026-04-26 03:00 | -7.91458 | -34.99331 | 2648 ft | 136 kts | 163° |
| 2026-04-26 03:00 | -7.92361 | -34.99033 | 2658 ft | 136 kts | 162° |
| 2026-04-26 03:01 | -7.93258 | -34.98735 | 2659 ft | 136 kts | 162° |
| 2026-04-26 03:01 | -7.94157 | -34.98437 | 2663 ft | 136 kts | 162° |
| 2026-04-26 03:01 | -7.95056 | -34.98139 | 2666 ft | 136 kts | 163° |
| 2026-04-26 03:01 | -7.95958 | -34.97841 | 2658 ft | 137 kts | 163° |
| 2026-04-26 03:02 | -7.96861 | -34.97542 | 2656 ft | 137 kts | 163° |
| 2026-04-26 03:02 | -7.97766 | -34.97242 | 2659 ft | 137 kts | 163° |
| 2026-04-26 03:02 | -7.98671 | -34.96942 | 2603 ft | 137 kts | 163° |
| 2026-04-26 03:02 | -7.99560 | -34.96648 | 2431 ft | 136 kts | 163° |
| 2026-04-26 03:03 | -8.00458 | -34.96351 | 2254 ft | 136 kts | 163° |
| 2026-04-26 03:03 | -8.01365 | -34.96050 | 2060 ft | 135 kts | 163° |
| 2026-04-26 03:03 | -8.02243 | -34.95759 | 1889 ft | 135 kts | 163° |
| 2026-04-26 03:03 | -8.03130 | -34.95465 | 1712 ft | 134 kts | 163° |
| 2026-04-26 03:04 | -8.04019 | -34.95171 | 1537 ft | 134 kts | 164° |
| 2026-04-26 03:04 | -8.04909 | -34.94876 | 1357 ft | 135 kts | 163° |
| 2026-04-26 03:04 | -8.05798 | -34.94582 | 1243 ft | 134 kts | 164° |
| 2026-04-26 03:04 | -8.06688 | -34.94287 | 1150 ft | 135 kts | 163° |
| 2026-04-26 03:05 | -8.07576 | -34.93993 | 959 ft | 134 kts | 163° |
| 2026-04-26 03:05 | -8.08463 | -34.93696 | 790 ft | 134 kts | 163° |
| 2026-04-26 03:05 | -8.09333 | -34.93394 | 539 ft | 131 kts | 162° |
| 2026-04-26 03:05 | -8.10209 | -34.93107 | 380 ft | 135 kts | 164° |
| 2026-04-26 03:06 | -8.11111 | -34.92815 | 193 ft | 136 kts | 165° |
| 2026-04-26 03:06 | -8.12007 | -34.92522 | 56 ft | 129 kts | 163° |
| 2026-04-26 03:06 | -8.12791 | -34.92269 | 44 ft | 99 kts | 161° |
| 2026-04-26 03:06 | -8.13173 | -34.92140 | 40 ft | 17 kts | 149° |
| 2026-04-26 03:07 | -8.13256 | -34.92056 | 39 ft | 17 kts | 132° |
| 2026-04-26 03:07 | -8.13300 | -34.92007 | 40 ft | 0 kts | 132° |
| 2026-04-26 03:08 | -8.13312 | -34.91993 | 40 ft | 6 kts | 131° |
| 2026-04-26 03:09 | -8.13344 | -34.91952 | 40 ft | 8 kts | 117° |
| 2026-04-26 03:09 | -8.13340 | -34.91901 | 40 ft | 7 kts | 73° |
| 2026-04-26 03:09 | -8.13330 | -34.91871 | 39 ft | 3 kts | 72° |
| 2026-04-26 03:09 | -8.13328 | -34.91863 | 40 ft | 0 kts | 72° |
| 2026-04-26 03:10 | -8.13328 | -34.91864 | 40 ft | 0 kts | 72° |
| 2026-04-26 03:10 | -8.13330 | -34.91872 | 39 ft | 0 kts | 72° |